createdAt,value
2019-02-17T00:00:48.203Z,4.70
2019-02-17T00:03:17.047Z,4.43
2019-02-17T00:05:45.899Z,4.47
2019-02-17T00:08:14.865Z,4.35
2019-02-17T00:10:43.767Z,4.80
2019-02-17T00:13:12.618Z,5.10
2019-02-17T00:15:41.498Z,5.30
2019-02-17T00:18:10.431Z,5.50
2019-02-17T00:20:39.313Z,4.75
2019-02-17T00:23:08.097Z,4.95
2019-02-17T00:25:36.949Z,4.80
2019-02-17T00:28:05.849Z,5.10
2019-02-17T00:30:34.667Z,4.92
2019-02-17T00:33:03.539Z,5.00
2019-02-17T00:35:32.660Z,4.78
2019-02-17T00:38:01.474Z,4.97
2019-02-17T00:40:30.280Z,4.55
2019-02-17T00:42:59.238Z,4.90
2019-02-17T00:45:28.123Z,5.33
2019-02-17T00:47:57.016Z,5.10
2019-02-17T00:50:25.733Z,5.33
2019-02-17T00:52:54.447Z,5.25
2019-02-17T00:55:23.339Z,4.92
2019-02-17T00:57:52.249Z,4.62
2019-02-17T01:00:21.158Z,5.00
2019-02-17T01:02:49.966Z,5.00
2019-02-17T01:05:18.751Z,4.67
2019-02-17T01:07:47.611Z,5.08
2019-02-17T01:10:16.433Z,4.55
2019-02-17T01:12:45.234Z,5.30
2019-02-17T01:15:14.161Z,5.25
2019-02-17T01:17:43.036Z,4.42
2019-02-17T01:20:11.971Z,4.53
2019-02-17T01:22:40.855Z,5.05
2019-02-17T01:25:09.706Z,4.47
2019-02-17T01:27:38.603Z,5.10
2019-02-17T01:30:07.871Z,4.72
2019-02-17T01:32:36.671Z,4.72
2019-02-17T01:35:05.880Z,4.37
2019-02-17T01:37:34.761Z,4.78
2019-02-17T01:40:03.915Z,4.53
2019-02-17T01:42:32.750Z,4.83
2019-02-17T01:45:01.641Z,4.47
2019-02-17T01:47:30.495Z,4.22
2019-02-17T01:49:59.306Z,4.53
2019-02-17T01:52:28.196Z,4.90
2019-02-17T01:54:57.059Z,4.58
2019-02-17T01:57:25.993Z,4.80
2019-02-17T01:59:54.816Z,4.83
2019-02-17T02:02:23.628Z,4.25
2019-02-17T02:04:52.527Z,4.53
2019-02-17T02:07:21.247Z,4.58
2019-02-17T02:09:50.050Z,4.15
2019-02-17T02:12:18.891Z,4.28
2019-02-17T02:14:47.623Z,5.12
2019-02-17T02:17:16.494Z,4.22
2019-02-17T02:19:45.498Z,4.03
2019-02-17T02:22:14.370Z,4.53
2019-02-17T02:24:43.222Z,4.60
2019-02-17T02:27:12.024Z,4.97
2019-02-17T02:29:41.508Z,4.62
2019-02-17T02:32:10.568Z,4.30
2019-02-17T02:34:39.293Z,4.65
2019-02-17T02:37:08.107Z,4.20
2019-02-17T02:39:36.975Z,4.75
2019-02-17T02:42:05.904Z,4.55
2019-02-17T02:44:34.746Z,4.60
2019-02-17T02:47:03.573Z,4.70
2019-02-17T02:49:32.384Z,4.50
2019-02-17T02:52:01.281Z,3.90
2019-02-17T02:54:30.160Z,4.70
2019-02-17T02:56:58.976Z,4.33
2019-02-17T02:59:27.842Z,4.37
2019-02-17T03:01:56.643Z,4.60
2019-02-17T03:04:25.419Z,4.33
2019-02-17T03:06:59.704Z,4.65
2019-02-17T03:09:28.494Z,4.75
2019-02-17T03:11:57.241Z,4.45
2019-02-17T03:14:26.022Z,5.35
2019-02-17T03:16:54.751Z,4.42
2019-02-17T03:19:23.586Z,4.00
2019-02-17T03:21:52.398Z,4.90
2019-02-17T03:24:21.220Z,4.55
2019-02-17T03:26:50.065Z,4.22
2019-02-17T03:29:18.857Z,4.08
2019-02-17T03:31:47.790Z,4.53
2019-02-17T03:34:16.495Z,4.50
2019-02-17T03:36:45.255Z,4.90
2019-02-17T03:39:14.171Z,4.25
2019-02-17T03:41:42.972Z,4.10
2019-02-17T03:44:11.734Z,4.67
2019-02-17T03:46:40.643Z,4.22
2019-02-17T03:49:09.454Z,4.67
2019-02-17T03:51:38.309Z,5.10
2019-02-17T03:54:07.077Z,4.20
2019-02-17T03:56:35.897Z,4.50
2019-02-17T03:59:04.615Z,3.87
2019-02-17T04:01:33.413Z,4.35
2019-02-17T04:04:02.352Z,4.28
2019-02-17T04:06:31.087Z,4.72
2019-02-17T04:08:59.975Z,4.05
2019-02-17T04:11:28.845Z,4.60
2019-02-17T04:13:57.659Z,4.37
2019-02-17T04:16:26.605Z,4.53
2019-02-17T04:18:55.429Z,4.40
2019-02-17T04:21:24.323Z,4.60
2019-02-17T04:23:53.077Z,4.58
2019-02-17T04:26:21.981Z,4.25
2019-02-17T04:28:50.875Z,4.05
2019-02-17T04:31:19.716Z,3.95
2019-02-17T04:33:48.480Z,4.22
2019-02-17T04:36:17.356Z,4.25
2019-02-17T04:38:46.164Z,4.53
2019-02-17T04:41:14.894Z,4.70
2019-02-17T04:43:43.659Z,4.20
2019-02-17T04:46:12.400Z,4.62
2019-02-17T04:48:41.367Z,4.90
2019-02-17T04:51:10.326Z,4.20
2019-02-17T04:53:39.196Z,4.53
2019-02-17T04:56:08.093Z,4.33
2019-02-17T04:58:36.871Z,4.58
2019-02-17T05:01:05.724Z,4.08
2019-02-17T05:03:34.456Z,4.42
2019-02-17T05:06:03.288Z,4.25
2019-02-17T05:08:32.184Z,4.15
2019-02-17T05:11:00.888Z,4.53
2019-02-17T05:13:29.789Z,5.10
2019-02-17T05:15:58.599Z,4.65
2019-02-17T05:18:27.514Z,4.10
2019-02-17T05:20:56.309Z,4.33
2019-02-17T05:23:25.118Z,4.00
2019-02-17T05:25:53.884Z,4.53
2019-02-17T05:28:22.677Z,4.25
2019-02-17T05:30:53.234Z,3.83
2019-02-17T05:33:22.040Z,4.03
2019-02-17T05:35:50.884Z,4.30
2019-02-17T05:38:19.591Z,4.50
2019-02-17T05:40:48.407Z,4.35
2019-02-17T05:43:17.291Z,4.75
2019-02-17T05:45:46.079Z,4.08
2019-02-17T05:48:14.908Z,4.40
2019-02-17T05:50:43.785Z,4.03
2019-02-17T05:53:12.535Z,4.53
2019-02-17T05:55:41.329Z,4.55
2019-02-17T05:58:10.083Z,4.15
2019-02-17T06:00:39.588Z,3.80
2019-02-17T06:03:08.344Z,4.20
2019-02-17T06:05:37.170Z,4.55
2019-02-17T06:08:05.884Z,4.17
2019-02-17T06:10:34.636Z,4.42
2019-02-17T06:13:03.439Z,3.95
2019-02-17T06:15:32.223Z,4.42
2019-02-17T06:18:01.094Z,3.95
2019-02-17T06:20:29.909Z,4.45
2019-02-17T06:22:58.788Z,4.25
2019-02-17T06:25:27.577Z,4.47
2019-02-17T06:27:56.484Z,3.70
2019-02-17T06:30:25.286Z,4.08
2019-02-17T06:32:54.182Z,3.80
2019-02-17T06:35:22.982Z,4.00
2019-02-17T06:37:51.727Z,4.15
2019-02-17T06:40:20.665Z,4.40
2019-02-17T06:42:49.489Z,4.42
2019-02-17T06:45:19.718Z,4.90
2019-02-17T06:47:48.812Z,3.80
2019-02-17T06:50:17.707Z,4.15
2019-02-17T06:52:46.513Z,4.00
2019-02-17T06:55:23.594Z,4.50
2019-02-17T06:57:52.447Z,3.92
2019-02-17T07:00:31.335Z,4.37
2019-02-17T07:03:00.204Z,3.75
2019-02-17T07:05:37.207Z,3.60
2019-02-17T07:08:05.940Z,4.28
2019-02-17T07:10:34.669Z,3.87
2019-02-17T07:13:03.531Z,4.05
2019-02-17T07:15:32.369Z,4.22
2019-02-17T07:18:01.122Z,4.37
2019-02-17T07:20:30.001Z,4.80
2019-02-17T07:22:58.959Z,4.65
2019-02-17T07:25:30.383Z,4.10
2019-02-17T07:27:58.277Z,4.17
2019-02-17T07:30:27.160Z,4.30
2019-02-17T07:32:56.049Z,4.12
2019-02-17T07:35:24.814Z,4.80
2019-02-17T07:37:53.550Z,4.08
2019-02-17T07:40:22.416Z,4.17
2019-02-17T07:42:51.313Z,4.37
2019-02-17T07:45:20.102Z,4.05
2019-02-17T07:47:48.944Z,4.25
2019-02-17T07:50:17.810Z,4.20
2019-02-17T07:52:46.750Z,4.47
2019-02-17T07:55:15.624Z,4.20
2019-02-17T07:57:44.374Z,4.15
2019-02-17T08:00:13.274Z,4.20
2019-02-17T08:02:42.107Z,4.33
2019-02-17T08:05:10.849Z,3.92
2019-02-17T08:07:39.670Z,4.42
2019-02-17T08:10:08.630Z,3.92
2019-02-17T08:12:37.505Z,4.08
2019-02-17T08:15:07.379Z,4.30
2019-02-17T08:17:36.286Z,4.47
2019-02-17T08:20:05.850Z,4.33
2019-02-17T08:22:34.671Z,5.08
2019-02-17T08:25:03.623Z,5.28
2019-02-17T08:27:32.458Z,6.70
2019-02-17T08:30:01.342Z,6.60
2019-02-17T08:32:30.191Z,6.83
2019-02-17T08:34:59.002Z,7.05
2019-02-17T08:37:27.821Z,7.40
2019-02-17T08:39:56.731Z,6.87
2019-02-17T08:42:25.718Z,7.05
2019-02-17T08:44:54.671Z,6.08
2019-02-17T08:47:23.440Z,8.10
2019-02-17T08:49:52.409Z,8.50
2019-02-17T08:52:21.330Z,7.65
2019-02-17T08:54:50.176Z,7.70
2019-02-17T08:57:19.005Z,8.03
2019-02-17T08:59:47.927Z,9.45
2019-02-17T09:02:16.807Z,13.48
2019-02-17T09:04:45.760Z,15.30
2019-02-17T09:07:14.501Z,12.78
2019-02-17T09:09:43.424Z,25.65
2019-02-17T09:12:18.597Z,24.43
2019-02-17T09:14:47.529Z,20.65
2019-02-17T09:17:16.370Z,19.95
2019-02-17T09:19:45.242Z,20.88
2019-02-17T09:22:14.044Z,22.85
2019-02-17T09:24:42.930Z,21.30
2019-02-17T09:27:11.869Z,22.80
2019-02-17T09:29:40.788Z,23.42
2019-02-17T09:32:16.352Z,23.50
2019-02-17T09:34:40.323Z,22.17
2019-02-17T09:37:09.283Z,20.35
2019-02-17T09:39:38.124Z,20.70
2019-02-17T09:42:07.059Z,20.70
2019-02-17T09:44:36.013Z,21.33
2019-02-17T09:47:04.925Z,29.30
2019-02-17T09:49:33.820Z,22.87
2019-02-17T09:52:02.656Z,44.08
2019-02-17T09:54:31.418Z,19.40
2019-02-17T09:57:00.296Z,23.05
2019-02-17T09:59:29.208Z,18.27
2019-02-17T10:01:58.083Z,20.62
2019-02-17T10:04:27.044Z,20.88
2019-02-17T10:06:56.034Z,18.85
2019-02-17T10:09:25.056Z,20.37
2019-02-17T10:11:54.363Z,19.32
2019-02-17T10:14:23.883Z,19.95
2019-02-17T10:16:52.736Z,18.90
2019-02-17T10:19:21.696Z,19.32
2019-02-17T10:21:50.644Z,17.32
2019-02-17T10:24:19.535Z,19.37
2019-02-17T10:26:48.454Z,19.15
2019-02-17T10:29:17.250Z,17.17
2019-02-17T10:31:46.319Z,17.80
2019-02-17T10:34:15.338Z,18.25
2019-02-17T10:36:44.285Z,17.40
2019-02-17T10:39:13.231Z,17.42
2019-02-17T10:41:42.255Z,16.95
2019-02-17T10:44:11.088Z,17.23
2019-02-17T10:46:40.005Z,17.73
2019-02-17T10:49:08.913Z,17.57
2019-02-17T10:51:37.819Z,14.95
2019-02-17T10:54:06.809Z,15.98
2019-02-17T10:56:35.748Z,15.70
2019-02-17T10:59:04.940Z,16.30
2019-02-17T11:01:33.858Z,15.13
2019-02-17T11:04:05.202Z,16.00
2019-02-17T11:06:34.223Z,15.55
2019-02-17T11:09:04.950Z,16.52
2019-02-17T11:11:34.189Z,15.78
2019-02-17T11:14:03.357Z,16.95
2019-02-17T11:16:32.448Z,16.40
2019-02-17T11:19:01.505Z,16.48
2019-02-17T11:21:30.477Z,15.05
2019-02-17T11:23:59.733Z,16.12
2019-02-17T11:26:28.576Z,15.15
2019-02-17T11:28:57.954Z,16.37
2019-02-17T11:31:29.294Z,13.90
2019-02-17T11:33:58.327Z,14.78
2019-02-17T11:36:27.341Z,14.75
2019-02-17T11:38:56.719Z,13.50
2019-02-17T11:41:25.619Z,15.75
2019-02-17T11:43:54.900Z,15.98
2019-02-17T11:46:23.972Z,16.20
2019-02-17T11:48:53.166Z,17.55
2019-02-17T11:51:21.973Z,17.45
2019-02-17T11:53:50.895Z,16.07
2019-02-17T11:56:20.291Z,16.35
2019-02-17T11:58:49.287Z,16.30
2019-02-17T12:01:18.151Z,15.95
2019-02-17T12:03:47.259Z,15.68
2019-02-17T12:06:16.269Z,16.48
2019-02-17T12:08:48.027Z,15.55
2019-02-17T12:11:17.531Z,16.15
2019-02-17T12:13:46.442Z,16.80
2019-02-17T12:16:15.343Z,15.80
2019-02-17T12:18:44.310Z,16.25
2019-02-17T12:21:34.962Z,15.38
2019-02-17T12:24:18.466Z,16.27
2019-02-17T12:27:18.449Z,16.00
2019-02-17T12:29:54.284Z,15.70
2019-02-17T12:32:28.552Z,13.88
2019-02-17T12:34:57.568Z,14.60
2019-02-17T12:37:26.578Z,14.83
2019-02-17T12:39:55.543Z,14.90
2019-02-17T12:42:24.647Z,16.17
2019-02-17T12:44:53.686Z,14.90
2019-02-17T12:47:23.353Z,15.25
2019-02-17T12:49:52.587Z,14.47
2019-02-17T12:52:21.862Z,16.42
2019-02-17T12:54:50.812Z,14.85
2019-02-17T12:57:19.754Z,14.43
2019-02-17T12:59:48.773Z,14.33
2019-02-17T13:02:18.013Z,16.57
2019-02-17T13:04:47.006Z,15.90
2019-02-17T13:07:15.923Z,15.72
2019-02-17T13:09:45.105Z,15.00
2019-02-17T13:12:14.125Z,14.33
2019-02-17T13:14:43.314Z,15.45
2019-02-17T13:17:12.245Z,15.38
2019-02-17T13:19:41.440Z,14.07
2019-02-17T13:22:10.327Z,14.53
2019-02-17T13:24:39.182Z,14.10
2019-02-17T13:27:08.030Z,13.28
2019-02-17T13:29:36.940Z,13.55
2019-02-17T13:32:05.867Z,12.28
2019-02-17T13:34:34.856Z,11.78
2019-02-17T13:37:03.689Z,11.65
2019-02-17T13:39:32.677Z,11.57
2019-02-17T13:42:01.650Z,10.75
2019-02-17T13:44:30.723Z,11.78
2019-02-17T13:46:59.676Z,11.95
2019-02-17T13:49:28.689Z,10.90
2019-02-17T13:51:57.659Z,11.65
2019-02-17T13:54:26.627Z,11.12
2019-02-17T13:56:55.471Z,11.35
2019-02-17T13:59:24.442Z,10.55
2019-02-17T14:01:53.403Z,10.70
2019-02-17T14:04:22.387Z,10.32
2019-02-17T14:06:51.366Z,9.85
2019-02-17T14:09:20.287Z,9.98
2019-02-17T14:11:49.111Z,10.40
2019-02-17T14:14:18.026Z,11.10
2019-02-17T14:16:47.006Z,10.28
2019-02-17T14:19:15.963Z,10.23
2019-02-17T14:21:44.870Z,9.55
2019-02-17T14:24:13.758Z,9.38
2019-02-17T14:26:42.997Z,9.00
2019-02-17T14:29:11.918Z,9.58
2019-02-17T14:31:40.840Z,8.08
2019-02-17T14:34:09.648Z,8.73
2019-02-17T14:36:38.486Z,8.35
2019-02-17T14:39:07.494Z,8.23
2019-02-17T14:41:36.297Z,7.15
2019-02-17T14:44:05.420Z,7.50
2019-02-17T14:46:34.382Z,6.95
2019-02-17T14:49:03.280Z,7.72
2019-02-17T14:51:32.409Z,9.25
2019-02-17T14:54:01.294Z,7.62
2019-02-17T14:56:30.180Z,9.00
2019-02-17T14:58:59.014Z,7.85
2019-02-17T15:01:28.132Z,8.05
2019-02-17T15:03:57.138Z,7.92
2019-02-17T15:06:26.088Z,7.67
2019-02-17T15:08:55.173Z,7.85
2019-02-17T15:11:24.115Z,7.83
2019-02-17T15:13:53.078Z,7.85
2019-02-17T15:16:22.079Z,7.78
2019-02-17T15:18:51.109Z,8.70
2019-02-17T15:21:20.171Z,8.00
2019-02-17T15:23:49.045Z,8.48
2019-02-17T15:26:17.984Z,8.05
2019-02-17T15:28:50.936Z,7.85
2019-02-17T15:31:17.511Z,7.28
2019-02-17T15:33:47.022Z,7.40
2019-02-17T15:36:15.915Z,7.40
2019-02-17T15:38:45.036Z,7.05
2019-02-17T15:41:13.965Z,7.78
2019-02-17T15:43:45.357Z,6.75
2019-02-17T15:46:13.637Z,7.87
2019-02-17T15:48:42.600Z,6.97
2019-02-17T15:51:11.895Z,6.85
2019-02-17T15:53:40.866Z,7.83
2019-02-17T15:56:10.037Z,7.80
2019-02-17T15:58:39.653Z,7.70
2019-02-17T16:01:08.749Z,6.78
2019-02-17T16:03:37.660Z,6.83
2019-02-17T16:06:06.641Z,6.20
2019-02-17T16:08:35.642Z,6.67
2019-02-17T16:11:04.628Z,6.22
2019-02-17T16:13:33.573Z,6.15
2019-02-17T16:16:02.611Z,6.80
2019-02-17T16:18:31.741Z,5.85
2019-02-17T16:21:00.699Z,5.67
2019-02-17T16:23:29.609Z,6.25
2019-02-17T16:25:58.733Z,6.17
2019-02-17T16:28:27.761Z,6.33
2019-02-17T16:30:56.838Z,5.70
2019-02-17T16:33:26.039Z,5.90
2019-02-17T16:35:54.998Z,5.80
2019-02-17T16:38:24.001Z,5.75
2019-02-17T16:40:53.227Z,5.87
2019-02-17T16:43:23.343Z,6.30
2019-02-17T16:45:52.781Z,5.78
2019-02-17T16:48:22.356Z,5.20
2019-02-17T16:50:51.983Z,5.92
2019-02-17T16:53:21.382Z,6.00
2019-02-17T16:55:51.146Z,6.60
2019-02-17T16:58:20.507Z,6.00
2019-02-17T17:00:49.600Z,6.03
2019-02-17T17:03:19.378Z,5.12
2019-02-17T17:05:49.155Z,5.53
2019-02-17T17:08:18.499Z,5.92
2019-02-17T17:10:48.724Z,5.75
2019-02-17T17:13:18.571Z,5.92
2019-02-17T17:15:49.138Z,5.15
2019-02-17T17:18:18.635Z,5.12
2019-02-17T17:20:48.207Z,5.67
2019-02-17T17:23:17.327Z,6.95
2019-02-17T17:25:47.088Z,5.65
2019-02-17T17:28:16.101Z,6.12
2019-02-17T17:30:45.391Z,7.05
2019-02-17T17:33:15.325Z,7.30
2019-02-17T17:35:44.751Z,7.80
2019-02-17T17:38:14.055Z,8.58
2019-02-17T17:40:43.482Z,9.08
2019-02-17T17:43:13.973Z,9.25
2019-02-17T17:45:43.767Z,9.03
2019-02-17T17:48:13.433Z,9.23
2019-02-17T17:50:43.304Z,10.08
2019-02-17T17:53:13.320Z,9.98
2019-02-17T17:55:43.252Z,9.20
2019-02-17T17:58:13.188Z,9.48
2019-02-17T18:00:43.538Z,7.80
2019-02-17T18:03:13.259Z,7.85
2019-02-17T18:05:42.392Z,8.48
2019-02-17T18:08:12.561Z,8.30
2019-02-17T18:10:42.773Z,8.33
2019-02-17T18:13:15.333Z,8.90
2019-02-17T18:15:45.863Z,10.10
2019-02-17T18:18:16.020Z,9.18
2019-02-17T18:20:45.312Z,9.25
2019-02-17T18:23:15.812Z,9.20
2019-02-17T18:25:48.383Z,9.75
2019-02-17T18:28:17.718Z,10.78
2019-02-17T18:30:48.335Z,9.55
2019-02-17T18:33:18.202Z,9.03
2019-02-17T18:35:49.344Z,9.00
2019-02-17T18:38:19.392Z,8.35
2019-02-17T18:40:50.137Z,10.25
2019-02-17T18:43:19.971Z,12.18
2019-02-17T18:45:50.141Z,12.28
2019-02-17T18:48:20.662Z,12.13
2019-02-17T18:50:58.991Z,11.60
2019-02-17T18:53:23.175Z,11.70
2019-02-17T18:55:53.463Z,10.68
2019-02-17T18:58:24.031Z,10.95
2019-02-17T19:00:54.422Z,11.38
2019-02-17T19:03:24.927Z,10.70
2019-02-17T19:05:55.128Z,10.03
2019-02-17T19:08:28.069Z,9.83
2019-02-17T19:10:59.296Z,9.38
2019-02-17T19:13:30.073Z,8.80
2019-02-17T19:16:01.186Z,9.25
2019-02-17T19:18:31.652Z,9.48
2019-02-17T19:21:03.365Z,8.45
2019-02-17T19:23:33.824Z,8.40
2019-02-17T19:26:04.817Z,8.75
2019-02-17T19:28:35.219Z,8.45
2019-02-17T19:31:05.091Z,8.73
2019-02-17T19:33:35.304Z,8.80
2019-02-17T19:36:05.541Z,8.20
2019-02-17T19:38:36.196Z,8.38
2019-02-17T19:41:06.038Z,8.05
2019-02-17T19:43:38.577Z,7.62
2019-02-17T19:46:09.409Z,8.55
2019-02-17T19:48:40.485Z,8.78
2019-02-17T19:51:11.109Z,7.65
2019-02-17T19:53:41.677Z,8.03
2019-02-17T19:56:11.792Z,7.95
2019-02-17T19:58:41.780Z,7.85
2019-02-17T20:01:12.001Z,7.50
2019-02-17T20:03:59.007Z,7.20
2019-02-17T20:06:29.427Z,7.40
2019-02-17T20:09:00.335Z,7.25
2019-02-17T20:11:30.338Z,7.37
2019-02-17T20:14:00.750Z,8.10
2019-02-17T20:16:31.005Z,7.28
2019-02-17T20:19:02.348Z,7.10
2019-02-17T20:21:32.697Z,7.10
2019-02-17T20:24:03.023Z,7.25
2019-02-17T20:26:33.184Z,7.22
2019-02-17T20:29:03.708Z,7.20
2019-02-17T20:31:34.136Z,7.20
2019-02-17T20:34:04.020Z,7.20
2019-02-17T20:36:33.864Z,7.60
2019-02-17T20:39:04.794Z,7.67
2019-02-17T20:41:34.140Z,8.08
2019-02-17T20:44:04.316Z,8.68
2019-02-17T20:46:34.482Z,7.97
2019-02-17T20:49:04.607Z,6.95
2019-02-17T20:51:35.943Z,6.95
2019-02-17T20:54:05.602Z,7.00
2019-02-17T20:56:36.186Z,6.80
2019-02-17T20:59:06.478Z,6.87
2019-02-17T21:01:36.463Z,7.42
2019-02-17T21:04:05.969Z,6.05
2019-02-17T21:06:36.306Z,6.78
2019-02-17T21:09:06.983Z,7.03
2019-02-17T21:11:37.044Z,6.78
2019-02-17T21:14:06.883Z,6.40
2019-02-17T21:16:36.752Z,6.85
2019-02-17T21:19:06.284Z,6.87
2019-02-17T21:21:35.484Z,6.70
2019-02-17T21:24:04.669Z,6.58
2019-02-17T21:26:34.060Z,6.92
2019-02-17T21:29:03.170Z,6.90
2019-02-17T21:31:33.165Z,6.42
2019-02-17T21:34:02.127Z,6.25
2019-02-17T21:36:31.603Z,6.10
2019-02-17T21:39:01.098Z,6.92
2019-02-17T21:41:30.164Z,6.35
2019-02-17T21:43:59.182Z,6.37
2019-02-17T21:46:28.250Z,5.60
2019-02-17T21:48:57.199Z,6.00
2019-02-17T21:51:26.482Z,5.72
2019-02-17T21:53:55.563Z,5.80
2019-02-17T21:56:24.459Z,5.97
2019-02-17T21:58:53.311Z,6.33
2019-02-17T22:01:22.325Z,5.90
2019-02-17T22:03:51.374Z,6.05
2019-02-17T22:06:20.209Z,6.28
2019-02-17T22:08:49.946Z,5.12
2019-02-17T22:11:18.953Z,5.97
2019-02-17T22:13:48.258Z,5.15
2019-02-17T22:16:17.134Z,5.62
2019-02-17T22:18:47.672Z,5.67
2019-02-17T22:21:16.528Z,5.97
2019-02-17T22:23:48.650Z,6.22
2019-02-17T22:26:17.670Z,5.08
2019-02-17T22:28:46.821Z,6.25
2019-02-17T22:31:15.788Z,6.33
2019-02-17T22:33:44.660Z,5.25
2019-02-17T22:36:13.619Z,5.60
2019-02-17T22:38:42.405Z,5.42
2019-02-17T22:41:11.382Z,6.25
2019-02-17T22:43:40.283Z,5.62
2019-02-17T22:46:09.172Z,5.62
2019-02-17T22:48:38.127Z,5.42
2019-02-17T22:51:06.987Z,5.35
2019-02-17T22:53:43.337Z,5.50
2019-02-17T22:56:06.601Z,5.55
2019-02-17T22:58:35.528Z,5.53
2019-02-17T23:01:09.085Z,6.12
2019-02-17T23:03:37.876Z,5.75
2019-02-17T23:06:06.837Z,5.62
2019-02-17T23:08:35.799Z,5.47
2019-02-17T23:11:04.671Z,6.37
2019-02-17T23:13:33.558Z,6.08
2019-02-17T23:16:02.478Z,5.90
2019-02-17T23:18:31.350Z,6.00
2019-02-17T23:21:00.148Z,5.78
2019-02-17T23:23:28.983Z,5.58
2019-02-17T23:25:57.946Z,5.78
2019-02-17T23:28:26.846Z,5.72
2019-02-17T23:30:55.692Z,5.45
2019-02-17T23:33:24.600Z,5.65
2019-02-17T23:35:53.524Z,5.17
2019-02-17T23:38:22.262Z,5.28
2019-02-17T23:40:51.049Z,6.28
2019-02-17T23:43:19.913Z,5.37
2019-02-17T23:45:48.664Z,5.50
2019-02-17T23:48:17.500Z,6.28
2019-02-17T23:50:46.299Z,5.75
2019-02-17T23:53:15.107Z,5.40
2019-02-17T23:55:44.093Z,5.45
2019-02-17T23:58:12.953Z,5.70
